Flight Track Log - Related Links

Times and Time Zones

All times are in EDT time to prevent confusion due to time zone crossing. See the N51EM flight status page for this flight to view local times or setup timezone preferences in your user account.

Time Position Orientation Groundspeed Altitude Reporting Facility
EDT Latitude Longitude Course Direction KTS MPH feet Rate Location/Type
Tue 06:00:47 PM 29.2147 -80.9772 244° Southwest 161 185 1,500  Level Jacksonville Center
Tue 06:01:54 PM 29.1986 -81.0158 244° Southwest 113 130 800 -627 Descending Jacksonville Center
Tue 06:03:00 PM 29.3140 -81.1070 336° Northwest  Level FlightAware Approximate
Tue 06:10:00 PM 30.1175 -81.4225 344° North  Level FlightAware Approximate
Tue 06:11:00 PM 30.2356 -81.4589 348° North  Level FlightAware Approximate
Tue 06:12:00 PM 30.3511 -81.5000 North  Level FlightAware Approximate
Tue 06:13:00 PM 30.4729 -81.4954 10° North  Level FlightAware Approximate
Tue 06:14:00 PM 30.5939 -81.4766 North  Level FlightAware Approximate
Tue 06:15:00 PM 30.7157 -81.4667 North  Level FlightAware Approximate
Tue 06:16:00 PM 30.8379 -81.4667 North  Level FlightAware Approximate
Tue 06:17:00 PM 30.9588 -81.4500 North  Level FlightAware Approximate
Tue 06:18:00 PM 31.0809 -81.4472 North  Level FlightAware Approximate
Tue 06:19:00 PM 31.2027 -81.4361 North  Level FlightAware Approximate
Tue 06:20:00 PM 31.3182 -81.4029 13° North  Level FlightAware Approximate
Tue 06:21:00 PM 31.4374 -81.3711 13° North  Level FlightAware Approximate
Tue 06:22:00 PM 31.5565 -81.3391 13° North  Level FlightAware Approximate
Tue 06:23:00 PM 31.6756 -81.3071 13° North  Level FlightAware Approximate
Tue 06:24:00 PM 31.7947 -81.2750 13° North  Level FlightAware Approximate
Tue 06:25:00 PM 31.9137 -81.2429 13° North  Level FlightAware Approximate
Tue 06:26:00 PM 32.0328 -81.2106 13° North  Level FlightAware Approximate
Tue 06:27:00 PM 32.1450 -81.1655 52° Northeast  Level FlightAware Approximate
Tue 06:28:00 PM 32.2195 -81.0511 52° Northeast  Level FlightAware Approximate
Tue 06:29:00 PM 32.2939 -80.9366 52° Northeast  Level FlightAware Approximate
Tue 06:30:00 PM 32.3683 -80.8219 52° Northeast  Level FlightAware Approximate
Tue 06:31:00 PM 32.4430 -80.7073 52° Northeast  Level FlightAware Approximate
Tue 06:32:00 PM 32.5175 -80.5926 52° Northeast  Level FlightAware Approximate
Tue 06:33:00 PM 32.5922 -80.4779 52° Northeast  Level FlightAware Approximate
Tue 06:34:00 PM 32.6674 -80.3635 52° Northeast  Level FlightAware Approximate
Tue 06:35:00 PM 32.7425 -80.2490 52° Northeast  Level FlightAware Approximate
Tue 06:36:00 PM 32.8175 -80.1343 52° Northeast  Level FlightAware Approximate
Tue 06:37:00 PM 32.8978 -80.0291 14° North  Level FlightAware Approximate
Tue 06:38:00 PM 33.0164 -79.9945 14° North  Level FlightAware Approximate
Tue 06:39:00 PM 33.1351 -79.9598 14° North  Level FlightAware Approximate
Tue 06:40:00 PM 33.2538 -79.9250 14° North  Level FlightAware Approximate
Tue 06:41:00 PM 33.3724 -79.8901 14° North  Level FlightAware Approximate
Tue 06:42:00 PM 33.4911 -79.8551 14° North  Level FlightAware Approximate
Tue 06:43:00 PM 33.6097 -79.8201 14° North  Level FlightAware Approximate
Tue 06:44:00 PM 33.7283 -79.7849 14° North  Level FlightAware Approximate
Tue 06:45:00 PM 33.8469 -79.7496 14° North  Level FlightAware Approximate
Tue 06:46:00 PM 33.9655 -79.7142 14° North  Level FlightAware Approximate
Tue 06:47:00 PM 34.0841 -79.6787 14° North  Level FlightAware Approximate
Tue 06:48:00 PM 34.2027 -79.6432 14° North  Level FlightAware Approximate
Tue 06:49:00 PM 34.3213 -79.6075 14° North  Level FlightAware Approximate
Tue 06:50:00 PM 34.4398 -79.5717 14° North  Level FlightAware Approximate
Tue 06:51:00 PM 34.5584 -79.5359 14° North  Level FlightAware Approximate
Tue 06:52:00 PM 34.6771 -79.5009 14° North  Level FlightAware Approximate
Tue 06:53:00 PM 34.7959 -79.4660 14° North  Level FlightAware Approximate
Tue 06:54:00 PM 34.9146 -79.4309 14° North  Level FlightAware Approximate
Tue 06:55:00 PM 35.0333 -79.3958 14° North  Level FlightAware Approximate
Tue 06:56:00 PM 35.1521 -79.3605 14° North  Level FlightAware Approximate
Tue 06:57:00 PM 35.2708 -79.3251 14° North  Level FlightAware Approximate
Tue 06:58:00 PM 35.3895 -79.2897 14° North  Level FlightAware Approximate
Tue 06:59:00 PM 35.5082 -79.2541 14° North  Level FlightAware Approximate
Tue 07:00:00 PM 35.6268 -79.2184 14° North  Level FlightAware Approximate
Tue 07:01:00 PM 35.7455 -79.1827 14° North  Level FlightAware Approximate
Tue 07:02:00 PM 35.8642 -79.1468 14° North  Level FlightAware Approximate
Tue 07:03:00 PM 35.9828 -79.1108 14° North  Level FlightAware Approximate
Tue 07:04:00 PM 36.1015 -79.0747 14° North  Level FlightAware Approximate
Tue 07:05:00 PM 36.2201 -79.0385 14° North  Level FlightAware Approximate
Tue 07:06:00 PM 36.3387 -79.0022 14° North  Level FlightAware Approximate
Tue 07:07:00 PM 36.4573 -78.9654 14° North  Level FlightAware Approximate
Tue 07:08:00 PM 36.5757 -78.9282 14° North  Level FlightAware Approximate
Tue 07:09:00 PM 36.6942 -78.8909 14° North  Level FlightAware Approximate
Tue 07:10:00 PM 36.8126 -78.8534 14° North  Level FlightAware Approximate
Tue 07:11:00 PM 36.9310 -78.8159 14° North  Level FlightAware Approximate
Tue 07:12:00 PM 37.0495 -78.7783 14° North  Level FlightAware Approximate
Tue 07:13:00 PM 37.1680 -78.7411 14° North  Level FlightAware Approximate
Tue 07:14:00 PM 37.2865 -78.7037 14° North  Level FlightAware Approximate
Tue 07:15:00 PM 37.4050 -78.6663 14° North  Level FlightAware Approximate
Tue 07:16:00 PM 37.5235 -78.6287 14° North  Level FlightAware Approximate
Tue 07:17:00 PM 37.6420 -78.5910 14° North  Level FlightAware Approximate
Tue 07:18:00 PM 37.7604 -78.5532 14° North  Level FlightAware Approximate
Tue 07:19:00 PM 37.8789 -78.5153 14° North  Level FlightAware Approximate
Tue 07:20:00 PM 37.9973 -78.4772 14° North  Level FlightAware Approximate
Tue 07:21:00 PM 38.1157 -78.4390 14° North  Level FlightAware Approximate
Tue 07:22:00 PM 38.2340 -78.3999 15° North  Level FlightAware Approximate
Tue 07:23:00 PM 38.3522 -78.3606 15° North  Level FlightAware Approximate
Tue 07:24:00 PM 38.4704 -78.3212 15° North  Level FlightAware Approximate
Tue 07:25:00 PM 38.5886 -78.2817 14° North  Level FlightAware Approximate
Tue 07:26:00 PM 38.7073 -78.2447 14° North  Level FlightAware Approximate
Tue 07:27:00 PM 38.8260 -78.2075 14° North  Level FlightAware Approximate
Tue 07:28:00 PM 38.9382 -78.1467 25° Northeast  Level FlightAware Approximate
Tue 07:29:00 PM 39.0488 -78.0797 25° Northeast  Level FlightAware Approximate
Tue 07:30:00 PM 39.1593 -78.0125 25° Northeast  Level FlightAware Approximate
Tue 07:31:00 PM 39.2697 -77.9451 25° Northeast  Level FlightAware Approximate
Tue 07:32:00 PM 39.3801 -77.8775 25° Northeast  Level FlightAware Approximate
Tue 07:33:00 PM 39.4905 -77.8097 25° Northeast  Level FlightAware Approximate
Tue 07:34:00 PM 39.5998 -77.7390 27° Northeast  Level FlightAware Approximate
Tue 07:35:00 PM 39.7071 -77.6643 14° North  Level FlightAware Approximate
Tue 07:36:00 PM 39.8173 -77.5996 24° Northeast  Level FlightAware Approximate
Tue 07:37:00 PM 39.9292 -77.5357 24° Northeast  Level FlightAware Approximate
Tue 07:38:00 PM 40.0150 -77.4231 44° Northeast  Level FlightAware Approximate
Tue 07:39:00 PM 40.1029 -77.3123 49° Northeast  Level FlightAware Approximate
Tue 07:40:00 PM 40.1902 -77.2010 43° Northeast  Level FlightAware Approximate
Tue 07:41:00 PM 40.2795 -77.0918 43° Northeast  Level FlightAware Approximate
Tue 07:42:00 PM 40.3167 -76.9461 90° East  Level FlightAware Approximate
Tue 07:43:00 PM 40.3443 -76.7947 57° Northeast  Level FlightAware Approximate
Tue 07:44:00 PM 40.3661 -76.6381 82° East  Level FlightAware Approximate
Tue 07:45:00 PM 40.3995 -76.4866 78° East  Level FlightAware Approximate
Tue 07:46:00 PM 40.4200 -76.3301 73° East  Level FlightAware Approximate
Tue 07:47:00 PM 40.4548 -76.1762 75° East  Level FlightAware Approximate
Tue 07:48:00 PM 40.4801 -76.0196 78° East  Level FlightAware Approximate
Tue 07:49:00 PM 40.5215 -75.8688 66° East  Level FlightAware Approximate
Tue 07:50:00 PM 40.5660 -75.7192 72° East  Level FlightAware Approximate
Tue 07:51:00 PM 40.5997 -75.5676 66° East  Level FlightAware Approximate
Tue 07:52:00 PM 40.6500 -75.4333 62° Northeast  Level FlightAware Approximate
Tue 07:53:00 PM 40.6524 -75.4404 62° Northeast  Level Estimated
Tue 07:54:00 PM 40.6500 -75.4333 62° Northeast  Level FlightAware Approximate
Tue 07:55:00 PM 40.6524 -75.4404 62° Northeast  Level Estimated
Tue 07:56:00 PM 40.6500 -75.4333 62° Northeast  Level FlightAware Approximate
Tue 07:57:00 PM 40.6524 -75.4404 62° Northeast  Level Estimated
Tue 07:58:00 PM 40.6500 -75.4333 62° Northeast  Level FlightAware Approximate
Tue 07:59:00 PM 40.6524 -75.4404 62° Northeast  Level Estimated
Tue 08:00:00 PM 40.6500 -75.4333 62° Northeast  Level FlightAware Approximate
Tue 08:01:00 PM 40.6524 -75.4404 62° Northeast  Level Estimated
Tue 08:02:00 PM 40.6500 -75.4333 62° Northeast  Level FlightAware Approximate
Tue 08:03:00 PM 40.6524 -75.4404 62° Northeast  Level Estimated
Tue 08:04:00 PM 40.6500 -75.4333 62° Northeast  Level FlightAware Approximate
Tue 08:05:00 PM 40.6524 -75.4404 62° Northeast  Level Estimated
Tue 08:06:00 PM 40.6500 -75.4333 62° Northeast  Level FlightAware Approximate

Login

Don't have an account? Register now (free) for customized features, flight alerts, and more!